Mooresville, Texas
Current Conditions -  °F | °C
As of 11:55 AM on Saturday 22 Nov 2014 (Local Time) from KPWG Reporting Station
Thunderstorm Thunderstorm  
Wind Chill: 19°   Ceiling: 1500
Heat Index: 19°   Visibility: 10mi
Dew Point: 14°   Wind: 9mph
Humidity: 73%   Direction: 150°SSE
Pressure: 29.95"   Gusts: NA
Location:  31.2985°N, 97.112°W
Report Text: KPWG 221755Z AUTO 15008KT 10SM VCTS BKN015 19/14 A2995 RMK AO1 LTG DSNT ALQDS TSB46 10200 20170 57034
Loading
Personal Weather Stations






























Interactive Weather Map New forecast layout! Learn more

10-Day Weather Forecast

Advertisements
Track Severe Weather on mobile